createdAt,value
2018-03-17T00:00:15.375Z,-1.00
2018-03-17T00:02:43.487Z,-1.00
2018-03-17T00:05:11.626Z,-1.10
2018-03-17T00:07:39.732Z,-1.10
2018-03-17T00:10:07.941Z,-1.30
2018-03-17T00:12:36.044Z,-1.30
2018-03-17T00:15:04.197Z,-1.40
2018-03-17T00:17:33.175Z,-1.50
2018-03-17T00:20:01.318Z,-1.50
2018-03-17T00:22:29.436Z,-1.50
2018-03-17T00:24:58.347Z,-1.40
2018-03-17T00:27:26.456Z,-1.50
2018-03-17T00:29:54.592Z,-1.50
2018-03-17T00:32:22.713Z,-1.60
2018-03-17T00:34:50.832Z,-1.70
2018-03-17T00:37:18.951Z,-1.70
2018-03-17T00:39:47.853Z,-1.70
2018-03-17T00:42:15.977Z,-1.70
2018-03-17T00:44:44.117Z,-1.80
2018-03-17T00:47:12.342Z,-1.90
2018-03-17T00:49:40.485Z,-1.90
2018-03-17T00:52:09.365Z,-1.70
2018-03-17T00:54:38.280Z,-1.70
2018-03-17T00:57:06.401Z,-1.70
2018-03-17T00:59:34.537Z,-1.60
2018-03-17T01:02:02.639Z,-1.50
2018-03-17T01:04:30.789Z,-1.50
2018-03-17T01:06:58.913Z,-1.50
2018-03-17T01:09:27.044Z,-1.50
2018-03-17T01:11:55.160Z,-1.60
2018-03-17T01:14:23.317Z,-1.60
2018-03-17T01:16:51.445Z,-1.70
2018-03-17T01:19:19.586Z,-1.60
2018-03-17T01:21:47.729Z,-1.50
2018-03-17T01:24:15.839Z,-1.30
2018-03-17T01:26:44.747Z,-1.30
2018-03-17T01:29:12.853Z,-1.40
2018-03-17T01:31:40.990Z,-1.40
2018-03-17T01:34:09.115Z,-1.40
2018-03-17T01:36:37.258Z,-1.40
2018-03-17T01:39:05.377Z,-1.50
2018-03-17T01:41:33.517Z,-1.40
2018-03-17T01:44:01.646Z,-1.30
2018-03-17T01:46:29.804Z,-1.30
2018-03-17T01:48:57.911Z,-1.20
2018-03-17T01:51:26.057Z,-1.50
2018-03-17T01:54:06.729Z,-1.90
2018-03-17T01:56:35.632Z,-1.80
2018-03-17T01:59:03.756Z,-1.80
2018-03-17T02:01:31.889Z,-1.70
2018-03-17T02:04:00.005Z,-1.70
2018-03-17T02:06:28.145Z,-1.70
2018-03-17T02:08:56.252Z,-1.60
2018-03-17T02:11:24.398Z,-1.60
2018-03-17T02:13:52.563Z,-1.80
2018-03-17T02:16:20.694Z,-1.70
2018-03-17T02:18:48.810Z,-1.80
2018-03-17T02:21:16.948Z,-1.70
2018-03-17T02:23:45.824Z,-1.60
2018-03-17T02:26:13.974Z,-1.70
2018-03-17T02:28:42.095Z,-1.70
2018-03-17T02:31:10.240Z,-1.80
2018-03-17T02:33:38.367Z,-2.00
2018-03-17T02:36:06.501Z,-2.00
2018-03-17T02:38:34.603Z,-2.00
2018-03-17T02:41:02.753Z,-2.00
2018-03-17T02:43:31.644Z,-2.20
2018-03-17T02:46:00.548Z,-2.10
2018-03-17T02:48:28.662Z,-2.10
2018-03-17T02:50:56.807Z,-2.00
2018-03-17T02:53:24.931Z,-2.10
2018-03-17T02:55:53.068Z,-2.00
2018-03-17T02:58:21.186Z,-2.10
2018-03-17T03:00:49.350Z,-2.10
2018-03-17T03:03:17.466Z,-2.30
2018-03-17T03:05:46.373Z,-2.30
2018-03-17T03:08:14.494Z,-2.40
2018-03-17T03:10:42.637Z,-2.40
2018-03-17T03:13:10.758Z,-2.50
2018-03-17T03:15:38.889Z,-2.70
2018-03-17T03:18:07.000Z,-2.70
2018-03-17T03:20:35.142Z,-2.70
2018-03-17T03:23:03.248Z,-2.60
2018-03-17T03:25:31.387Z,-2.50
2018-03-17T03:27:59.509Z,-2.70
2018-03-17T03:30:28.532Z,-2.80
2018-03-17T03:32:56.649Z,-2.80
2018-03-17T03:35:24.765Z,-2.70
2018-03-17T03:37:52.905Z,-2.70
2018-03-17T03:40:22.520Z,-2.80
2018-03-17T03:42:50.656Z,-2.80
2018-03-17T03:45:18.760Z,-2.80
2018-03-17T03:47:46.910Z,-2.90
2018-03-17T03:50:15.034Z,-3.10
2018-03-17T03:52:43.174Z,-3.00
2018-03-17T03:55:11.293Z,-3.10
2018-03-17T03:57:39.427Z,-3.20
2018-03-17T04:00:08.328Z,-3.20
2018-03-17T04:02:36.455Z,-3.30
2018-03-17T04:05:04.583Z,-3.20
2018-03-17T04:07:33.489Z,-3.30
2018-03-17T04:10:01.607Z,-3.30
2018-03-17T04:12:29.743Z,-3.30
2018-03-17T04:14:57.864Z,-3.20
2018-03-17T04:17:25.994Z,-3.30
2018-03-17T04:19:54.104Z,-3.30
2018-03-17T04:22:22.271Z,-3.20
2018-03-17T04:24:50.388Z,-3.20
2018-03-17T04:27:19.298Z,-3.30
2018-03-17T04:29:47.404Z,-3.30
2018-03-17T04:32:15.546Z,-3.40
2018-03-17T04:34:43.666Z,-3.40
2018-03-17T04:37:11.801Z,-3.30
2018-03-17T04:39:39.912Z,-3.40
2018-03-17T04:42:08.042Z,-3.40
2018-03-17T04:44:36.150Z,-3.50
2018-03-17T04:47:05.020Z,-3.50
2018-03-17T04:49:33.164Z,-3.50
2018-03-17T04:52:01.297Z,-3.40
2018-03-17T04:54:30.925Z,-3.30
2018-03-17T04:56:59.826Z,-3.30
2018-03-17T04:59:28.704Z,-3.30
2018-03-17T05:01:57.718Z,-3.20
2018-03-17T05:04:25.841Z,-3.20
2018-03-17T05:06:53.997Z,-3.20
2018-03-17T05:09:22.107Z,-3.20
2018-03-17T05:11:50.286Z,-3.10
2018-03-17T05:14:18.384Z,-3.00
2018-03-17T05:16:46.541Z,-3.10
2018-03-17T05:19:15.422Z,-3.00
2018-03-17T05:21:43.559Z,-3.10
2018-03-17T05:24:11.733Z,-3.10
2018-03-17T05:26:39.952Z,-3.20
2018-03-17T05:29:08.839Z,-3.30
2018-03-17T05:31:36.985Z,-3.30
2018-03-17T05:34:05.107Z,-3.30
2018-03-17T05:36:33.246Z,-3.40
2018-03-17T05:39:01.373Z,-3.40
2018-03-17T05:41:29.509Z,-3.50
2018-03-17T05:43:59.378Z,-3.60
2018-03-17T05:46:28.303Z,-3.60
2018-03-17T05:48:56.426Z,-3.60
2018-03-17T05:51:24.559Z,-3.60
2018-03-17T05:53:53.455Z,-3.70
2018-03-17T05:56:22.345Z,-3.80
2018-03-17T05:58:51.258Z,-3.90
2018-03-17T06:01:19.372Z,-3.90
2018-03-17T06:03:47.513Z,-3.90
2018-03-17T06:06:15.624Z,-4.00
2018-03-17T06:08:44.541Z,-4.00
2018-03-17T06:11:13.415Z,-4.00
2018-03-17T06:13:41.570Z,-4.00
2018-03-17T06:16:09.682Z,-4.00
2018-03-17T06:18:38.595Z,-3.90
2018-03-17T06:21:06.735Z,-4.00
2018-03-17T06:23:34.915Z,-3.90
2018-03-17T06:26:03.850Z,-3.70
2018-03-17T06:28:38.347Z,-3.80
2018-03-17T06:31:07.241Z,-3.90
2018-03-17T06:33:35.379Z,-3.90
2018-03-17T06:36:06.577Z,-3.90
2018-03-17T06:38:34.723Z,-3.90
2018-03-17T06:41:03.595Z,-4.00
2018-03-17T06:43:31.733Z,-4.00
2018-03-17T06:45:59.841Z,-4.00
2018-03-17T06:48:28.501Z,-4.00
2018-03-17T06:50:56.614Z,-3.90
2018-03-17T06:53:24.744Z,-3.80
2018-03-17T06:55:52.869Z,-3.80
2018-03-17T06:58:21.782Z,-3.70
2018-03-17T07:00:49.884Z,-3.70
2018-03-17T07:03:18.069Z,-3.60
2018-03-17T07:05:46.279Z,-3.50
2018-03-17T07:08:15.176Z,-3.50
2018-03-17T07:10:44.061Z,-3.40
2018-03-17T07:13:12.964Z,-3.40
2018-03-17T07:15:41.837Z,-3.50
2018-03-17T07:18:10.007Z,-3.60
2018-03-17T07:20:38.127Z,-3.60
2018-03-17T07:23:06.295Z,-3.70
2018-03-17T07:25:34.409Z,-3.80
2018-03-17T07:28:02.641Z,-3.70
2018-03-17T07:30:30.847Z,-3.70
2018-03-17T07:32:58.991Z,-3.70
2018-03-17T07:35:27.116Z,-3.70
2018-03-17T07:37:55.303Z,-3.60
2018-03-17T07:40:23.404Z,-3.60
2018-03-17T07:42:51.553Z,-3.70
2018-03-17T07:45:20.451Z,-3.80
2018-03-17T07:47:48.597Z,-3.80
2018-03-17T07:50:16.704Z,-3.90
2018-03-17T07:52:44.941Z,-3.90
2018-03-17T07:55:13.470Z,-3.90
2018-03-17T07:57:41.609Z,-3.70
2018-03-17T08:00:09.727Z,-3.60
2018-03-17T08:02:37.887Z,-3.70
2018-03-17T08:05:06.318Z,-3.80
2018-03-17T08:07:35.261Z,-3.80
2018-03-17T08:10:03.382Z,-3.90
2018-03-17T08:12:31.545Z,-3.80
2018-03-17T08:14:59.673Z,-3.80
2018-03-17T08:17:28.573Z,-3.60
2018-03-17T08:19:56.687Z,-3.70
2018-03-17T08:22:24.882Z,-3.70
2018-03-17T08:24:52.976Z,-3.80
2018-03-17T08:27:21.884Z,-3.80
2018-03-17T08:29:50.077Z,-3.80
2018-03-17T08:32:18.278Z,-3.70
2018-03-17T08:34:46.408Z,-3.60
2018-03-17T08:37:14.528Z,-3.60
2018-03-17T08:39:42.661Z,-3.50
2018-03-17T08:42:10.833Z,-3.60
2018-03-17T08:44:38.976Z,-3.70
2018-03-17T08:47:07.867Z,-3.60
2018-03-17T08:49:36.786Z,-3.70
2018-03-17T08:52:05.071Z,-3.70
2018-03-17T08:54:33.277Z,-3.60
2018-03-17T08:57:01.428Z,-3.60
2018-03-17T08:59:29.685Z,-3.50
2018-03-17T09:01:57.805Z,-3.50
2018-03-17T09:04:25.954Z,-3.40
2018-03-17T09:06:55.871Z,-3.30
2018-03-17T09:09:24.021Z,-3.40
2018-03-17T09:11:52.133Z,-3.40
2018-03-17T09:14:21.297Z,-3.40
2018-03-17T09:16:49.412Z,-3.30
2018-03-17T09:19:17.547Z,-3.20
2018-03-17T09:21:45.695Z,-3.00
2018-03-17T09:24:13.846Z,-2.90
2018-03-17T09:26:41.974Z,-3.00
2018-03-17T09:29:10.221Z,-3.10
2018-03-17T09:31:40.143Z,-3.30
2018-03-17T09:34:08.285Z,-3.30
2018-03-17T09:36:36.995Z,-3.20
2018-03-17T09:39:05.124Z,-3.30
2018-03-17T09:41:33.253Z,-3.20
2018-03-17T09:44:02.165Z,-3.30
2018-03-17T09:46:30.285Z,-3.30
2018-03-17T09:48:58.427Z,-3.20
2018-03-17T09:51:26.547Z,-3.00
2018-03-17T09:53:55.670Z,-3.10
2018-03-17T09:56:24.549Z,-2.90
2018-03-17T09:58:53.461Z,-3.00
2018-03-17T10:01:21.576Z,-3.00
2018-03-17T10:03:49.716Z,-2.80
2018-03-17T10:06:17.827Z,-2.70
2018-03-17T10:08:45.965Z,-2.70
2018-03-17T10:11:14.081Z,-2.70
2018-03-17T10:13:42.226Z,-2.70
2018-03-17T10:16:10.337Z,-2.70
2018-03-17T10:18:38.492Z,-2.80
2018-03-17T10:21:06.626Z,-2.70
2018-03-17T10:23:34.830Z,-2.50
2018-03-17T10:26:02.925Z,-2.30
2018-03-17T10:28:31.180Z,-2.10
2018-03-17T10:30:59.396Z,-2.20
2018-03-17T10:33:27.550Z,-2.20
2018-03-17T10:35:55.679Z,-2.30
2018-03-17T10:38:23.809Z,-2.30
2018-03-17T10:40:51.930Z,-2.40
2018-03-17T10:43:20.078Z,-2.90
2018-03-17T10:45:48.954Z,-3.00
2018-03-17T10:48:17.861Z,-2.90
2018-03-17T10:50:45.988Z,-2.90
2018-03-17T10:53:14.111Z,-2.90
2018-03-17T10:55:42.233Z,-3.00
2018-03-17T10:58:10.401Z,-3.00
2018-03-17T11:00:44.187Z,-2.90
2018-03-17T11:03:12.336Z,-2.70
2018-03-17T11:05:40.451Z,-2.50
2018-03-17T11:08:08.593Z,-2.60
2018-03-17T11:10:36.704Z,-2.50
2018-03-17T11:13:04.835Z,-2.60
2018-03-17T11:15:32.987Z,-2.60
2018-03-17T11:18:01.882Z,-2.90
2018-03-17T11:20:30.785Z,-2.80
2018-03-17T11:22:58.945Z,-2.80
2018-03-17T11:25:27.070Z,-2.70
2018-03-17T11:27:55.712Z,-2.70
2018-03-17T11:30:24.612Z,-2.70
2018-03-17T11:32:52.725Z,-2.70
2018-03-17T11:35:20.865Z,-2.80
2018-03-17T11:37:49.321Z,-2.70
2018-03-17T11:40:18.241Z,-2.60
2018-03-17T11:42:46.361Z,-2.70
2018-03-17T11:45:14.509Z,-2.70
2018-03-17T11:47:42.633Z,-2.80
2018-03-17T11:50:11.542Z,-2.90
2018-03-17T11:52:39.671Z,-2.90
2018-03-17T11:55:07.851Z,-2.80
2018-03-17T11:57:35.937Z,-2.70
2018-03-17T12:00:04.120Z,-2.70
2018-03-17T12:02:35.030Z,-2.70
2018-03-17T12:05:03.161Z,-2.60
2018-03-17T12:07:31.283Z,-2.60
2018-03-17T12:09:59.445Z,-2.60
2018-03-17T12:12:27.549Z,-2.40
2018-03-17T12:14:55.684Z,-2.30
2018-03-17T12:17:23.800Z,-2.30
2018-03-17T12:19:52.710Z,-2.40
2018-03-17T12:22:20.882Z,-2.40
2018-03-17T12:24:48.984Z,-2.40
2018-03-17T12:27:17.102Z,-2.40
2018-03-17T12:29:45.258Z,-2.50
2018-03-17T12:32:13.377Z,-2.70
2018-03-17T12:34:41.535Z,-2.70
2018-03-17T12:37:10.403Z,-2.80
2018-03-17T12:39:39.328Z,-2.60
2018-03-17T12:42:07.463Z,-2.60
2018-03-17T12:44:35.604Z,-2.70
2018-03-17T12:47:03.717Z,-2.90
2018-03-17T12:49:31.881Z,-2.80
2018-03-17T12:52:00.001Z,-2.80
2018-03-17T12:54:28.158Z,-2.70
2018-03-17T12:56:57.028Z,-2.40
2018-03-17T12:59:25.183Z,-2.40
2018-03-17T13:01:53.438Z,-2.30
2018-03-17T13:04:22.494Z,-2.30
2018-03-17T13:06:51.386Z,-2.10
2018-03-17T13:09:20.333Z,-2.10
2018-03-17T13:11:48.483Z,-2.10
2018-03-17T13:14:16.640Z,-2.10
2018-03-17T13:16:44.765Z,-2.10
2018-03-17T13:19:24.851Z,-2.10
2018-03-17T13:21:52.946Z,-2.00
2018-03-17T13:24:21.092Z,-2.00
2018-03-17T13:27:00.984Z,-2.20
2018-03-17T13:29:29.143Z,-2.20
2018-03-17T13:31:57.265Z,-2.30
2018-03-17T13:34:25.436Z,-2.30
2018-03-17T13:37:05.336Z,-2.30
2018-03-17T13:39:33.481Z,-2.30
2018-03-17T13:42:01.589Z,-2.20
2018-03-17T13:44:29.725Z,-2.20
2018-03-17T13:46:58.500Z,-2.20
2018-03-17T13:49:26.645Z,-2.20
2018-03-17T13:51:54.810Z,-2.20
2018-03-17T13:54:22.947Z,-2.10
2018-03-17T13:56:51.068Z,-2.00
2018-03-17T13:59:19.202Z,-2.20
2018-03-17T14:01:48.093Z,-2.00
2018-03-17T14:04:16.989Z,-1.90
2018-03-17T14:06:45.941Z,-1.90
2018-03-17T14:09:14.097Z,-1.90
2018-03-17T14:11:42.212Z,-1.90
2018-03-17T14:14:10.347Z,-1.90
2018-03-17T14:16:38.482Z,-2.00
2018-03-17T14:19:07.388Z,-2.00
2018-03-17T14:21:35.525Z,-2.00
2018-03-17T14:24:03.693Z,-2.10
2018-03-17T14:26:31.828Z,-2.00
2018-03-17T14:28:59.953Z,-1.90
2018-03-17T14:31:28.080Z,-1.90
2018-03-17T14:33:56.192Z,-2.00
2018-03-17T14:36:24.337Z,-2.00
2018-03-17T14:38:52.459Z,-2.00
2018-03-17T14:41:21.368Z,-2.10
2018-03-17T14:43:49.476Z,-2.10
2018-03-17T14:46:17.639Z,-2.00
2018-03-17T14:48:45.767Z,-2.00
2018-03-17T14:51:14.673Z,-1.90
2018-03-17T14:53:42.815Z,-1.90
2018-03-17T14:56:10.962Z,-2.10
2018-03-17T14:58:39.093Z,-2.10
2018-03-17T15:01:07.229Z,-2.10
2018-03-17T15:03:35.348Z,-2.00
2018-03-17T15:06:03.548Z,-2.00
2018-03-17T15:08:31.678Z,-2.00
2018-03-17T15:11:00.575Z,-2.20
2018-03-17T15:13:28.685Z,-2.20
2018-03-17T15:15:56.824Z,-2.30
2018-03-17T15:18:24.944Z,-2.30
2018-03-17T15:20:53.108Z,-2.30
2018-03-17T15:23:21.221Z,-2.40
2018-03-17T15:25:49.387Z,-2.40
2018-03-17T15:28:17.513Z,-2.50
2018-03-17T15:30:45.718Z,-2.40
2018-03-17T15:33:13.833Z,-2.40
2018-03-17T15:35:41.964Z,-2.50
2018-03-17T15:38:10.090Z,-2.60
2018-03-17T15:40:38.244Z,-2.50
2018-03-17T15:43:07.130Z,-2.50
2018-03-17T15:45:36.041Z,-2.40
2018-03-17T15:48:04.162Z,-2.40
2018-03-17T15:50:32.317Z,-2.40
2018-03-17T15:53:00.423Z,-2.60
2018-03-17T15:55:28.551Z,-2.60
2018-03-17T15:57:56.678Z,-2.60
2018-03-17T16:00:24.869Z,-2.60
2018-03-17T16:02:53.754Z,-2.40
2018-03-17T16:05:22.664Z,-2.40
2018-03-17T16:07:50.848Z,-2.40
2018-03-17T16:10:19.005Z,-2.30
2018-03-17T16:12:47.909Z,-2.20
2018-03-17T16:15:16.040Z,-2.20
2018-03-17T16:17:44.171Z,-2.30
2018-03-17T16:20:12.366Z,-2.30
2018-03-17T16:22:40.517Z,-2.30
2018-03-17T16:25:08.679Z,-2.30
2018-03-17T16:27:36.797Z,-2.50
2018-03-17T16:30:04.934Z,-2.50
2018-03-17T16:32:33.116Z,-2.50
2018-03-17T16:35:01.281Z,-2.60
2018-03-17T16:37:29.394Z,-2.40
2018-03-17T16:39:57.541Z,-2.40
2018-03-17T16:42:25.674Z,-2.30
2018-03-17T16:44:54.578Z,-2.30
2018-03-17T16:47:22.798Z,-2.30
2018-03-17T16:49:50.923Z,-2.30
2018-03-17T16:52:19.098Z,-2.30
2018-03-17T16:54:47.225Z,-2.30
2018-03-17T16:57:15.365Z,-2.30
2018-03-17T16:59:43.470Z,-2.20
2018-03-17T17:02:11.609Z,-2.30
2018-03-17T17:04:39.727Z,-2.30
2018-03-17T17:07:07.915Z,-2.30
2018-03-17T17:09:36.792Z,-2.20
2018-03-17T17:12:04.949Z,-2.20
2018-03-17T17:14:33.069Z,-2.40
2018-03-17T17:17:01.977Z,-2.40
2018-03-17T17:19:30.089Z,-2.40
2018-03-17T17:21:58.237Z,-2.40
2018-03-17T17:24:26.364Z,-2.30
2018-03-17T17:26:54.646Z,-2.30
2018-03-17T17:29:22.804Z,-2.40
2018-03-17T17:31:50.945Z,-2.40
2018-03-17T17:34:19.064Z,-2.40
2018-03-17T17:36:47.967Z,-2.40
2018-03-17T17:39:16.865Z,-2.40
2018-03-17T17:41:45.763Z,-2.30
2018-03-17T17:44:13.888Z,-2.40
2018-03-17T17:46:42.020Z,-2.40
2018-03-17T17:49:10.887Z,-2.40
2018-03-17T17:51:39.484Z,-2.40
2018-03-17T17:54:07.893Z,-2.40
2018-03-17T17:56:36.052Z,-2.40
2018-03-17T17:59:04.147Z,-2.40
2018-03-17T18:01:32.293Z,-2.40
2018-03-17T18:04:00.422Z,-2.40
2018-03-17T18:06:28.574Z,-2.50
2018-03-17T18:08:56.680Z,-2.50
2018-03-17T18:11:24.829Z,-2.40
2018-03-17T18:13:52.964Z,-2.30
2018-03-17T18:16:21.107Z,-2.20
2018-03-17T18:18:50.003Z,-2.20
2018-03-17T18:21:18.177Z,-2.20
2018-03-17T18:23:47.431Z,-2.20
2018-03-17T18:26:15.577Z,-2.20
2018-03-17T18:28:43.692Z,-2.20
2018-03-17T18:31:11.845Z,-2.20
2018-03-17T18:33:39.972Z,-2.20
2018-03-17T18:36:08.872Z,-2.20
2018-03-17T18:38:36.990Z,-2.20
2018-03-17T18:41:05.115Z,-2.20
2018-03-17T18:43:33.247Z,-2.20
2018-03-17T18:46:01.397Z,-2.20
2018-03-17T18:48:29.507Z,-2.20
2018-03-17T18:50:57.651Z,-2.20
2018-03-17T18:53:25.755Z,-2.20
2018-03-17T18:55:53.904Z,-2.20
2018-03-17T18:58:22.026Z,-2.40
2018-03-17T19:00:50.196Z,-2.50
2018-03-17T19:03:19.100Z,-2.50
2018-03-17T19:05:47.968Z,-2.50
2018-03-17T19:08:16.850Z,-2.50
2018-03-17T19:10:44.997Z,-2.50
2018-03-17T19:13:13.112Z,-2.40
2018-03-17T19:15:42.033Z,-2.40
2018-03-17T19:18:10.191Z,-2.40
2018-03-17T19:20:38.320Z,-2.30
2018-03-17T19:23:06.477Z,-2.40
2018-03-17T19:25:34.590Z,-2.40
2018-03-17T19:28:03.500Z,-2.40
2018-03-17T19:30:31.641Z,-2.40
2018-03-17T19:32:59.778Z,-2.50
2018-03-17T19:35:27.906Z,-2.50
2018-03-17T19:37:56.823Z,-2.40
2018-03-17T19:40:25.419Z,-2.50
2018-03-17T19:42:53.616Z,-2.40
2018-03-17T19:45:21.787Z,-2.30
2018-03-17T19:47:49.996Z,-2.30
2018-03-17T19:50:18.171Z,-2.40
2018-03-17T19:52:47.081Z,-2.50
2018-03-17T19:55:15.205Z,-2.50
2018-03-17T19:57:43.579Z,-2.40
2018-03-17T20:00:11.770Z,-2.40
2018-03-17T20:02:40.287Z,-2.40
2018-03-17T20:05:08.450Z,-2.50
2018-03-17T20:07:37.487Z,-2.50
2018-03-17T20:10:05.746Z,-2.50
2018-03-17T20:12:33.906Z,-2.50
2018-03-17T20:15:02.810Z,-2.50
2018-03-17T20:17:30.979Z,-2.50
2018-03-17T20:19:59.103Z,-2.40
2018-03-17T20:22:27.258Z,-2.40
2018-03-17T20:24:55.510Z,-2.40
2018-03-17T20:27:23.662Z,-2.40
2018-03-17T20:29:52.637Z,-2.50
2018-03-17T20:32:20.801Z,-2.50
2018-03-17T20:34:48.922Z,-2.50
2018-03-17T20:37:17.123Z,-2.50
2018-03-17T20:39:45.224Z,-2.60
2018-03-17T20:42:13.360Z,-2.60
2018-03-17T20:44:41.482Z,-2.50
2018-03-17T20:47:09.684Z,-2.50
2018-03-17T20:49:39.075Z,-2.50
2018-03-17T20:52:07.311Z,-2.50
2018-03-17T20:54:35.449Z,-2.50
2018-03-17T20:57:03.594Z,-2.50
2018-03-17T20:59:32.494Z,-2.50
2018-03-17T21:02:01.403Z,-2.50
2018-03-17T21:04:29.513Z,-2.50
2018-03-17T21:06:57.751Z,-2.50
2018-03-17T21:09:25.874Z,-2.40
2018-03-17T21:11:54.021Z,-2.40
2018-03-17T21:14:22.196Z,-2.40
2018-03-17T21:16:50.341Z,-2.50
2018-03-17T21:19:18.456Z,-2.50
2018-03-17T21:21:46.642Z,-2.40
2018-03-17T21:24:14.761Z,-2.40
2018-03-17T21:26:42.883Z,-2.40
2018-03-17T21:29:11.017Z,-2.50
2018-03-17T21:31:39.317Z,-2.50
2018-03-17T21:34:07.452Z,-2.40
2018-03-17T21:36:36.329Z,-2.40
2018-03-17T21:39:05.253Z,-2.30
2018-03-17T21:41:33.374Z,-2.30
2018-03-17T21:44:01.529Z,-2.40
2018-03-17T21:46:30.441Z,-2.40
2018-03-17T21:48:58.592Z,-2.40
2018-03-17T21:51:26.724Z,-2.30
2018-03-17T21:53:54.956Z,-2.30
2018-03-17T21:56:23.063Z,-2.30
2018-03-17T21:58:51.988Z,-2.40
2018-03-17T22:01:20.116Z,-2.40
2018-03-17T22:03:48.263Z,-2.40
2018-03-17T22:06:16.374Z,-2.40
2018-03-17T22:08:45.290Z,-2.30
2018-03-17T22:11:13.403Z,-2.30
2018-03-17T22:13:41.596Z,-2.30
2018-03-17T22:16:09.698Z,-2.20
2018-03-17T22:18:37.876Z,-2.20
2018-03-17T22:21:05.991Z,-2.30
2018-03-17T22:23:34.906Z,-2.20
2018-03-17T22:26:04.033Z,-2.20
2018-03-17T22:28:32.206Z,-2.30
2018-03-17T22:31:00.334Z,-2.40
2018-03-17T22:33:28.485Z,-2.40
2018-03-17T22:35:56.604Z,-2.40
2018-03-17T22:38:25.504Z,-2.30
2018-03-17T22:40:54.389Z,-2.30
2018-03-17T22:43:23.309Z,-2.30
2018-03-17T22:45:51.429Z,-2.30
2018-03-17T22:48:19.575Z,-2.30
2018-03-17T22:50:47.728Z,-2.30
2018-03-17T22:53:15.897Z,-2.40
2018-03-17T22:55:44.003Z,-2.40
2018-03-17T22:58:12.140Z,-2.40
2018-03-17T23:00:40.263Z,-2.30
2018-03-17T23:03:08.453Z,-2.40
2018-03-17T23:05:36.559Z,-2.40
2018-03-17T23:08:04.702Z,-2.30
2018-03-17T23:10:32.824Z,-2.40
2018-03-17T23:13:00.952Z,-2.50
2018-03-17T23:15:29.055Z,-2.40
2018-03-17T23:17:58.073Z,-2.50
2018-03-17T23:20:26.201Z,-2.50
2018-03-17T23:22:54.332Z,-2.50
2018-03-17T23:25:22.445Z,-2.50
2018-03-17T23:27:50.577Z,-2.50
2018-03-17T23:30:18.708Z,-2.50
2018-03-17T23:32:47.602Z,-2.40
2018-03-17T23:35:16.491Z,-2.50
2018-03-17T23:37:45.393Z,-2.50
2018-03-17T23:40:13.512Z,-2.50
2018-03-17T23:42:41.653Z,-2.60
2018-03-17T23:45:09.773Z,-2.70
2018-03-17T23:47:37.921Z,-2.70
2018-03-17T23:50:06.037Z,-2.60
2018-03-17T23:52:34.932Z,-2.70
2018-03-17T23:55:03.822Z,-2.60
2018-03-17T23:57:32.709Z,-2.60
